High Point, New Jersey
Current Conditions -  °F | °C
As of 9:53 AM on Tuesday 21 Oct 2014 (Local Time) from KFWN Reporting Station
Overcast Overcast  
Wind Chill: 53°   Ceiling: 4500
Heat Index: 53°   Visibility: 10mi
Dew Point: 46°   Wind: 3mph
Humidity: 77%   Direction: 20°NNE
Pressure: 29.91"   Gusts: NA
Location:  41.2395°N, 74.6087°W
Report Text: KFWN 211353Z AUTO 02003KT 10SM BKN045 OVC055 12/08 A2991 RMK AO2 SLP128 T01170078
Loading
Personal Weather Stations






























Interactive Weather Map New forecast layout! Learn more

10-Day Weather Forecast

Advertisements
Track Severe Weather on mobile